Terminal Aerodrome Forecast
Issued by NWS Sterling, VA

Current Version | Previous Version | Graphics & Text | Print | Product List | Glossary On
Versions: 1 2 3 4 5 6 7 8 9 10 11 12 13 14 15 16 17 18 19 20 21 22 23 24 25 26
146
FTUS41 KLWX 161120
TAFDCA
TAF
KDCA 161120Z 1612/1718 29007KT P6SM -SHRA OVC050
     FM161400 28008KT P6SM OVC050
     FM161700 29008KT P6SM -SHRA SCT025 OVC045
     FM161900 32014G23KT 6SM -SHRA BR SCT025 OVC040
     FM162100 32016G26KT P6SM OVC035
     FM170400 34009KT P6SM FEW250=

USA.gov is the U.S. government's official web portal to all federal, state and local government web resources and services.